createdAt,value
2018-09-02T00:02:32.528Z,10.51
2018-09-02T00:05:37.510Z,10.44
2018-09-02T00:08:42.422Z,10.40
2018-09-02T00:11:47.354Z,10.40
2018-09-02T00:14:52.325Z,10.32
2018-09-02T00:17:57.248Z,10.26
2018-09-02T00:21:02.307Z,10.18
2018-09-02T00:24:07.246Z,10.18
2018-09-02T00:27:12.164Z,10.27
2018-09-02T00:30:17.088Z,10.22
2018-09-02T00:33:22.122Z,10.19
2018-09-02T00:36:26.973Z,10.15
2018-09-02T00:39:31.879Z,10.12
2018-09-02T00:42:36.810Z,10.12
2018-09-02T00:45:41.754Z,10.14
2018-09-02T00:48:46.735Z,10.13
2018-09-02T00:51:51.636Z,10.14
2018-09-02T00:54:56.558Z,10.12
2018-09-02T00:58:03.703Z,10.09
2018-09-02T01:01:08.625Z,10.12
2018-09-02T01:04:13.541Z,10.11
2018-09-02T01:07:18.493Z,10.06
2018-09-02T01:10:23.436Z,10.07
2018-09-02T01:13:28.378Z,10.02
2018-09-02T01:16:33.285Z,10.02
2018-09-02T01:19:38.238Z,9.98
2018-09-02T01:22:43.181Z,9.89
2018-09-02T01:25:48.108Z,9.89
2018-09-02T01:28:53.087Z,9.82
2018-09-02T01:31:58.031Z,9.79
2018-09-02T01:35:02.972Z,9.81
2018-09-02T01:38:07.946Z,9.82
2018-09-02T01:41:12.852Z,9.76
2018-09-02T01:44:17.792Z,9.67
2018-09-02T01:47:22.735Z,9.65
2018-09-02T01:50:27.674Z,9.68
2018-09-02T01:53:32.605Z,9.65
2018-09-02T01:56:37.529Z,9.64
2018-09-02T01:59:42.457Z,9.60
2018-09-02T02:02:48.037Z,9.62
2018-09-02T02:05:53.000Z,9.63
2018-09-02T02:08:57.962Z,9.65
2018-09-02T02:12:02.945Z,9.66
2018-09-02T02:15:08.093Z,9.61
2018-09-02T02:18:13.029Z,9.60
2018-09-02T02:21:17.952Z,9.59
2018-09-02T02:24:22.898Z,9.52
2018-09-02T02:27:28.029Z,9.45
2018-09-02T02:30:32.948Z,9.52
2018-09-02T02:33:37.881Z,9.55
2018-09-02T02:36:42.861Z,9.59
2018-09-02T02:39:47.793Z,9.50
2018-09-02T02:42:52.721Z,9.40
2018-09-02T02:45:57.666Z,9.43
2018-09-02T02:49:06.165Z,9.46
2018-09-02T02:52:11.121Z,9.45
2018-09-02T02:55:16.053Z,9.43
2018-09-02T02:58:21.057Z,9.35
2018-09-02T03:01:25.993Z,9.36
2018-09-02T03:04:30.957Z,9.40
2018-09-02T03:07:35.891Z,9.41
2018-09-02T03:10:40.904Z,9.41
2018-09-02T03:13:45.786Z,9.40
2018-09-02T03:16:50.737Z,9.38
2018-09-02T03:19:55.715Z,9.39
2018-09-02T03:23:00.641Z,9.37
2018-09-02T03:26:05.618Z,9.37
2018-09-02T03:29:10.532Z,9.36
2018-09-02T03:32:15.483Z,9.40
2018-09-02T03:35:20.427Z,9.46
2018-09-02T03:38:25.404Z,9.48
2018-09-02T03:41:30.395Z,9.52
2018-09-02T03:44:35.353Z,9.55
2018-09-02T03:47:40.285Z,9.61
2018-09-02T03:50:45.222Z,9.61
2018-09-02T03:53:50.181Z,9.62
2018-09-02T03:56:55.353Z,9.60
2018-09-02T04:00:00.276Z,9.60
2018-09-02T04:03:05.305Z,9.60
2018-09-02T04:06:10.229Z,9.61
2018-09-02T04:09:15.149Z,9.57
2018-09-02T04:12:20.100Z,9.58
2018-09-02T04:15:25.024Z,9.61
2018-09-02T04:18:29.974Z,9.56
2018-09-02T04:21:34.910Z,9.56
2018-09-02T04:24:39.830Z,9.50
2018-09-02T04:27:44.761Z,9.51
2018-09-02T04:30:49.791Z,9.55
2018-09-02T04:33:54.962Z,9.56
2018-09-02T04:36:59.881Z,9.56
2018-09-02T04:40:05.025Z,9.52
2018-09-02T04:43:09.975Z,9.47
2018-09-02T04:46:14.901Z,9.45
2018-09-02T04:49:19.827Z,9.41
2018-09-02T04:52:24.737Z,9.42
2018-09-02T04:55:29.648Z,9.43
2018-09-02T04:58:34.550Z,9.41
2018-09-02T05:01:39.478Z,9.43
2018-09-02T05:04:44.432Z,9.45
2018-09-02T05:07:49.349Z,9.43
2018-09-02T05:10:54.249Z,9.39
2018-09-02T05:13:59.203Z,9.43
2018-09-02T05:17:04.179Z,9.47
2018-09-02T05:20:09.157Z,9.45
2018-09-02T05:23:14.101Z,9.52
2018-09-02T05:26:19.033Z,9.55
2018-09-02T05:29:23.945Z,9.60
2018-09-02T05:32:28.945Z,9.66
2018-09-02T05:35:33.852Z,9.67
2018-09-02T05:38:38.761Z,9.67
2018-09-02T05:41:43.682Z,9.72
2018-09-02T05:44:48.576Z,9.79
2018-09-02T05:47:53.488Z,9.88
2018-09-02T05:50:58.414Z,9.88
2018-09-02T05:54:03.385Z,9.82
2018-09-02T05:57:08.353Z,9.93
2018-09-02T06:00:13.293Z,10.01
2018-09-02T06:03:18.231Z,10.22
2018-09-02T06:06:23.221Z,10.42
2018-09-02T06:09:28.125Z,10.60
2018-09-02T06:12:33.193Z,10.82
2018-09-02T06:15:38.108Z,11.06
2018-09-02T06:18:43.021Z,11.23
2018-09-02T06:21:47.965Z,11.33
2018-09-02T06:24:52.883Z,11.45
2018-09-02T06:27:57.824Z,11.47
2018-09-02T06:31:02.736Z,11.59
2018-09-02T06:34:07.649Z,11.75
2018-09-02T06:37:12.561Z,11.81
2018-09-02T06:40:17.466Z,11.97
2018-09-02T06:43:22.381Z,12.12
2018-09-02T06:46:27.353Z,12.32
2018-09-02T06:49:32.289Z,12.52
2018-09-02T06:52:37.214Z,12.61
2018-09-02T06:55:42.504Z,12.73
2018-09-02T06:58:47.492Z,12.80
2018-09-02T07:01:52.375Z,12.89
2018-09-02T07:04:57.277Z,13.03
2018-09-02T07:08:02.215Z,13.09
2018-09-02T07:11:07.130Z,13.14
2018-09-02T07:14:12.059Z,13.18
2018-09-02T07:17:17.009Z,13.21
2018-09-02T07:20:21.978Z,13.22
2018-09-02T07:23:26.922Z,13.29
2018-09-02T07:26:31.852Z,13.37
2018-09-02T07:29:36.785Z,13.43
2018-09-02T07:32:42.105Z,13.50
2018-09-02T07:35:47.271Z,13.58
2018-09-02T07:38:52.241Z,13.67
2018-09-02T07:41:57.200Z,13.74
2018-09-02T07:45:02.205Z,13.83
2018-09-02T07:48:07.146Z,13.92
2018-09-02T07:51:12.099Z,14.03
2018-09-02T07:54:17.038Z,14.13
2018-09-02T07:57:21.993Z,14.20
2018-09-02T08:00:26.953Z,14.26
2018-09-02T08:03:31.890Z,14.34
2018-09-02T08:06:36.800Z,14.40
2018-09-02T08:09:41.760Z,14.47
2018-09-02T08:12:46.840Z,14.55
2018-09-02T08:15:51.820Z,14.66
2018-09-02T08:18:56.757Z,14.78
2018-09-02T08:22:01.687Z,14.96
2018-09-02T08:25:06.638Z,15.10
2018-09-02T08:28:11.594Z,15.22
2018-09-02T08:31:17.467Z,15.26
2018-09-02T08:34:22.386Z,15.25
2018-09-02T08:37:27.297Z,15.34
2018-09-02T08:40:32.236Z,15.46
2018-09-02T08:43:37.151Z,15.44
2018-09-02T08:46:42.069Z,15.35
2018-09-02T08:49:46.986Z,15.35
2018-09-02T08:52:52.049Z,15.43
2018-09-02T08:55:56.977Z,15.59
2018-09-02T08:59:01.881Z,15.75
2018-09-02T09:02:06.813Z,15.86
2018-09-02T09:05:11.725Z,15.78
2018-09-02T09:08:16.885Z,15.88
2018-09-02T09:11:21.656Z,15.78
2018-09-02T09:14:26.594Z,15.89
2018-09-02T09:17:31.529Z,15.93
2018-09-02T09:20:36.450Z,16.01
2018-09-02T09:23:41.421Z,16.36
2018-09-02T09:26:46.338Z,16.53
2018-09-02T09:29:51.281Z,16.95
2018-09-02T09:32:56.198Z,17.11
2018-09-02T09:36:01.105Z,17.46
2018-09-02T09:39:07.528Z,17.80
2018-09-02T09:42:12.422Z,18.65
2018-09-02T09:45:17.481Z,19.39
2018-09-02T09:48:22.408Z,19.54
2018-09-02T09:51:27.322Z,19.82
2018-09-02T09:54:32.249Z,19.96
2018-09-02T09:57:37.207Z,19.92
2018-09-02T10:00:48.817Z,19.94
2018-09-02T10:03:53.736Z,19.67
2018-09-02T10:06:58.725Z,19.56
2018-09-02T10:10:03.731Z,19.46
2018-09-02T10:13:08.672Z,19.47
2018-09-02T10:16:13.611Z,19.32
2018-09-02T10:19:18.525Z,19.04
2018-09-02T10:22:23.478Z,19.23
2018-09-02T10:25:28.408Z,19.41
2018-09-02T10:28:33.445Z,19.41
2018-09-02T10:31:38.377Z,19.46
2018-09-02T10:34:43.305Z,19.66
2018-09-02T10:37:48.556Z,19.57
2018-09-02T10:40:53.583Z,19.44
2018-09-02T10:43:58.452Z,19.31
2018-09-02T10:47:03.496Z,19.02
2018-09-02T10:50:08.901Z,18.85
2018-09-02T10:53:13.844Z,18.81
2018-09-02T10:56:18.777Z,18.64
2018-09-02T10:59:23.737Z,18.50
2018-09-02T11:02:28.673Z,18.56
2018-09-02T11:05:33.589Z,18.41
2018-09-02T11:08:38.546Z,18.45
2018-09-02T11:11:43.444Z,18.63
2018-09-02T11:14:48.365Z,18.83
2018-09-02T11:17:53.356Z,19.03
2018-09-02T11:20:58.328Z,19.17
2018-09-02T11:24:03.508Z,19.15
2018-09-02T11:27:08.742Z,19.21
2018-09-02T11:30:13.665Z,18.94
2018-09-02T11:33:18.619Z,19.05
2018-09-02T11:36:23.558Z,19.10
2018-09-02T11:39:28.505Z,19.00
2018-09-02T11:42:33.422Z,19.02
2018-09-02T11:45:38.445Z,18.97
2018-09-02T11:48:43.369Z,18.93
2018-09-02T11:51:48.298Z,18.78
2018-09-02T11:54:53.221Z,18.79
2018-09-02T11:57:58.173Z,18.71
2018-09-02T12:01:03.189Z,18.81
2018-09-02T12:04:08.181Z,18.98
2018-09-02T12:07:13.066Z,18.92
2018-09-02T12:10:18.133Z,18.98
2018-09-02T12:13:23.050Z,19.06
2018-09-02T12:16:27.996Z,19.10
2018-09-02T12:19:32.952Z,19.11
2018-09-02T12:22:37.885Z,18.94
2018-09-02T12:25:42.806Z,19.00
2018-09-02T12:28:47.729Z,19.01
2018-09-02T12:31:52.660Z,19.21
2018-09-02T12:34:57.582Z,19.35
2018-09-02T12:38:02.504Z,19.35
2018-09-02T12:41:07.425Z,19.49
2018-09-02T12:44:12.335Z,19.66
2018-09-02T12:47:17.333Z,19.92
2018-09-02T12:50:22.275Z,20.08
2018-09-02T12:53:27.170Z,20.26
2018-09-02T12:56:32.117Z,20.19
2018-09-02T12:59:37.018Z,20.27
2018-09-02T13:02:41.941Z,20.42
2018-09-02T13:05:46.852Z,20.55
2018-09-02T13:08:51.769Z,20.62
2018-09-02T13:11:56.696Z,20.71
2018-09-02T13:15:01.702Z,20.92
2018-09-02T13:18:06.699Z,20.96
2018-09-02T13:21:11.628Z,20.85
2018-09-02T13:24:16.574Z,20.70
2018-09-02T13:27:21.576Z,20.61
2018-09-02T13:30:26.497Z,20.34
2018-09-02T13:33:31.413Z,20.37
2018-09-02T13:36:36.400Z,20.25
2018-09-02T13:39:41.550Z,20.09
2018-09-02T13:42:46.492Z,20.10
2018-09-02T13:45:51.417Z,20.04
2018-09-02T13:48:56.325Z,20.10
2018-09-02T13:52:01.318Z,20.08
2018-09-02T13:55:06.286Z,20.09
2018-09-02T13:58:11.207Z,20.05
2018-09-02T14:01:16.323Z,20.03
2018-09-02T14:04:21.218Z,20.04
2018-09-02T14:07:26.160Z,20.00
2018-09-02T14:10:31.097Z,19.79
2018-09-02T14:13:36.013Z,19.67
2018-09-02T14:16:40.953Z,19.57
2018-09-02T14:19:45.974Z,19.73
2018-09-02T14:22:50.842Z,19.76
2018-09-02T14:25:55.773Z,19.82
2018-09-02T14:29:00.685Z,20.08
2018-09-02T14:32:05.662Z,20.32
2018-09-02T14:35:10.589Z,20.49
2018-09-02T14:38:15.539Z,20.43
2018-09-02T14:41:20.665Z,20.39
2018-09-02T14:44:25.589Z,20.24
2018-09-02T14:47:30.557Z,20.19
2018-09-02T14:50:35.497Z,20.33
2018-09-02T14:53:40.706Z,20.27
2018-09-02T14:56:45.743Z,20.18
2018-09-02T14:59:50.753Z,20.26
2018-09-02T15:02:55.692Z,20.30
2018-09-02T15:06:01.220Z,20.14
2018-09-02T15:09:07.280Z,20.11
2018-09-02T15:12:12.213Z,20.12
2018-09-02T15:15:17.421Z,20.13
2018-09-02T15:18:22.384Z,19.94
2018-09-02T15:21:27.407Z,19.76
2018-09-02T15:24:32.412Z,19.71
2018-09-02T15:27:37.681Z,19.69
2018-09-02T15:30:42.889Z,19.86
2018-09-02T15:33:48.532Z,19.84
2018-09-02T15:36:53.543Z,19.94
2018-09-02T15:39:58.492Z,19.76
2018-09-02T15:43:03.598Z,19.69
2018-09-02T15:46:08.743Z,19.51
2018-09-02T15:49:14.040Z,19.65
2018-09-02T15:52:19.376Z,19.62
2018-09-02T15:55:24.688Z,19.67
2018-09-02T15:58:29.685Z,19.75
2018-09-02T16:01:34.684Z,19.65
2018-09-02T16:04:39.874Z,19.74
2018-09-02T16:07:45.183Z,19.74
2018-09-02T16:10:50.594Z,19.54
2018-09-02T16:13:55.984Z,19.60
2018-09-02T16:17:01.435Z,19.43
2018-09-02T16:20:07.041Z,19.47
2018-09-02T16:23:12.015Z,19.28
2018-09-02T16:26:17.094Z,19.29
2018-09-02T16:29:22.180Z,19.46
2018-09-02T16:32:28.722Z,19.40
2018-09-02T16:35:33.696Z,19.36
2018-09-02T16:38:38.786Z,19.25
2018-09-02T16:41:44.314Z,18.95
2018-09-02T16:44:49.851Z,18.86
2018-09-02T16:47:55.233Z,18.66
2018-09-02T16:51:00.265Z,18.86
2018-09-02T16:54:05.294Z,18.95
2018-09-02T16:57:10.299Z,19.00
2018-09-02T17:00:15.321Z,18.92
2018-09-02T17:03:22.838Z,18.95
2018-09-02T17:06:27.785Z,19.04
2018-09-02T17:09:32.812Z,19.07
2018-09-02T17:12:37.910Z,19.18
2018-09-02T17:15:42.769Z,19.01
2018-09-02T17:18:50.442Z,19.14
2018-09-02T17:21:55.463Z,19.02
2018-09-02T17:25:00.470Z,18.97
2018-09-02T17:28:05.565Z,18.97
2018-09-02T17:31:10.532Z,18.94
2018-09-02T17:34:15.530Z,18.70
2018-09-02T17:37:20.520Z,18.74
2018-09-02T17:40:25.527Z,18.72
2018-09-02T17:43:30.497Z,18.72
2018-09-02T17:46:35.569Z,18.66
2018-09-02T17:49:40.541Z,18.61
2018-09-02T17:52:45.508Z,18.45
2018-09-02T17:55:50.546Z,18.39
2018-09-02T17:58:55.462Z,18.33
2018-09-02T18:02:00.463Z,18.37
2018-09-02T18:05:05.477Z,18.33
2018-09-02T18:08:10.487Z,18.46
2018-09-02T18:11:15.449Z,18.52
2018-09-02T18:14:20.378Z,18.40
2018-09-02T18:17:25.330Z,18.39
2018-09-02T18:20:30.282Z,18.23
2018-09-02T18:23:35.229Z,18.18
2018-09-02T18:26:40.205Z,18.06
2018-09-02T18:29:49.746Z,18.02
2018-09-02T18:32:54.875Z,17.99
2018-09-02T18:35:59.826Z,18.03
2018-09-02T18:39:07.841Z,17.91
2018-09-02T18:42:12.757Z,17.81
2018-09-02T18:45:17.803Z,17.83
2018-09-02T18:48:22.706Z,17.82
2018-09-02T18:51:27.644Z,17.83
2018-09-02T18:54:32.719Z,17.83
2018-09-02T18:57:37.658Z,17.89
2018-09-02T19:00:43.074Z,18.04
2018-09-02T19:03:48.051Z,18.16
2018-09-02T19:06:53.045Z,18.21
2018-09-02T19:09:57.974Z,18.09
2018-09-02T19:13:02.989Z,18.21
2018-09-02T19:16:08.111Z,18.24
2018-09-02T19:19:13.884Z,18.32
2018-09-02T19:22:19.245Z,18.30
2018-09-02T19:25:24.549Z,18.33
2018-09-02T19:28:29.625Z,18.38
2018-09-02T19:31:34.634Z,18.43
2018-09-02T19:34:39.558Z,18.34
2018-09-02T19:37:44.540Z,18.27
2018-09-02T19:40:49.643Z,18.28
2018-09-02T19:43:54.609Z,18.23
2018-09-02T19:46:59.661Z,18.26
2018-09-02T19:50:05.268Z,18.20
2018-09-02T19:53:10.777Z,18.29
2018-09-02T19:56:15.703Z,18.26
2018-09-02T19:59:21.135Z,18.30
2018-09-02T20:02:26.582Z,18.26
2018-09-02T20:05:31.893Z,18.32
2018-09-02T20:08:36.833Z,18.30
2018-09-02T20:11:42.124Z,18.29
2018-09-02T20:14:47.540Z,18.26
2018-09-02T20:17:52.722Z,18.25
2018-09-02T20:20:57.730Z,18.23
2018-09-02T20:24:02.988Z,18.22
2018-09-02T20:27:07.977Z,18.06
2018-09-02T20:30:12.929Z,18.02
2018-09-02T20:33:17.929Z,17.93
2018-09-02T20:36:23.067Z,18.01
2018-09-02T20:39:28.013Z,18.01
2018-09-02T20:42:33.135Z,18.07
2018-09-02T20:45:38.391Z,18.09
2018-09-02T20:48:43.404Z,18.14
2018-09-02T20:51:48.414Z,18.03
2018-09-02T20:54:53.510Z,17.98
2018-09-02T20:57:58.742Z,17.98
2018-09-02T21:01:04.561Z,17.94
2018-09-02T21:04:09.636Z,17.99
2018-09-02T21:07:14.643Z,17.99
2018-09-02T21:10:19.607Z,17.96
2018-09-02T21:13:24.572Z,17.97
2018-09-02T21:16:29.564Z,17.96
2018-09-02T21:19:34.676Z,17.95
2018-09-02T21:22:40.997Z,17.91
2018-09-02T21:25:46.266Z,17.78
2018-09-02T21:28:51.271Z,17.67
2018-09-02T21:31:56.271Z,17.60
2018-09-02T21:35:01.465Z,17.59
2018-09-02T21:38:06.893Z,17.67
2018-09-02T21:41:11.824Z,17.78
2018-09-02T21:44:16.998Z,17.79
2018-09-02T21:47:21.971Z,17.82
2018-09-02T21:50:26.959Z,17.80
2018-09-02T21:53:31.960Z,17.78
2018-09-02T21:56:36.907Z,17.68
2018-09-02T22:03:22.905Z,17.55
2018-09-02T22:06:27.838Z,17.57
2018-09-02T22:09:33.265Z,17.65
2018-09-02T22:12:38.388Z,17.71
2018-09-02T22:15:43.333Z,17.76
2018-09-02T22:18:48.342Z,17.66
2018-09-02T22:21:53.278Z,17.55
2018-09-02T22:24:58.346Z,17.58
2018-09-02T22:28:03.292Z,17.57
2018-09-02T22:31:08.328Z,17.59
2018-09-02T22:34:13.309Z,17.62
2018-09-02T22:37:18.233Z,17.66
2018-09-02T22:40:23.181Z,17.68
2018-09-02T22:43:28.474Z,17.69
2018-09-02T22:46:33.410Z,17.72
2018-09-02T22:49:38.425Z,17.66
2018-09-02T22:52:43.482Z,17.63
2018-09-02T22:55:48.500Z,17.58
2018-09-02T22:58:53.958Z,17.52
2018-09-02T23:01:59.290Z,17.53
2018-09-02T23:05:04.549Z,17.51
2018-09-02T23:08:09.547Z,17.54
2018-09-02T23:11:14.517Z,17.60
2018-09-02T23:14:19.452Z,17.59
2018-09-02T23:17:24.429Z,17.54
2018-09-02T23:20:29.380Z,17.64
2018-09-02T23:23:34.397Z,17.56
2018-09-02T23:26:39.329Z,17.47
2018-09-02T23:29:44.395Z,17.48
2018-09-02T23:32:49.308Z,17.48
2018-09-02T23:35:54.233Z,17.51
2018-09-02T23:38:59.168Z,17.48
2018-09-02T23:42:04.126Z,17.36
2018-09-02T23:45:09.200Z,17.29
2018-09-02T23:48:14.133Z,17.23
2018-09-02T23:51:19.093Z,17.21
2018-09-02T23:54:24.020Z,17.22
2018-09-02T23:57:28.951Z,17.27
